sensor_id;sensor_type;location;lat;lon;timestamp;P1;durP1;ratioP1;P2;durP2;ratioP2
36355;SDS011;22384;54.302;18.596;2022-08-19T05:08:35;19.05;;;10.80;;
36355;SDS011;22384;54.302;18.596;2022-08-19T05:11:15;16.05;;;10.70;;
36355;SDS011;22384;54.302;18.596;2022-08-19T05:13:45;17.90;;;9.43;;
36355;SDS011;22384;54.302;18.596;2022-08-19T05:16:18;15.10;;;10.45;;
36355;SDS011;22384;54.302;18.596;2022-08-19T05:18:48;16.15;;;10.60;;
36355;SDS011;22384;54.302;18.596;2022-08-19T05:21:39;18.13;;;10.43;;
36355;SDS011;22384;54.302;18.596;2022-08-19T05:24:25;18.88;;;10.52;;
36355;SDS011;22384;54.302;18.596;2022-08-19T05:26:57;15.80;;;10.73;;
36355;SDS011;22384;54.302;18.596;2022-08-19T05:29:30;19.55;;;10.40;;
36355;SDS011;22384;54.302;18.596;2022-08-19T05:32:01;17.65;;;9.90;;
36355;SDS011;22384;54.302;18.596;2022-08-19T05:34:28;15.98;;;10.43;;
36355;SDS011;22384;54.302;18.596;2022-08-19T05:36:59;12.43;;;9.02;;
36355;SDS011;22384;54.302;18.596;2022-08-19T05:39:31;17.75;;;9.65;;
36355;SDS011;22384;54.302;18.596;2022-08-19T05:42:03;18.52;;;9.88;;
36355;SDS011;22384;54.302;18.596;2022-08-19T05:44:44;14.20;;;9.38;;
36355;SDS011;22384;54.302;18.596;2022-08-19T05:47:25;12.57;;;9.25;;
36355;SDS011;22384;54.302;18.596;2022-08-19T05:50:01;14.57;;;9.70;;
36355;SDS011;22384;54.302;18.596;2022-08-19T05:52:28;13.48;;;9.07;;
36355;SDS011;22384;54.302;18.596;2022-08-19T05:55:03;13.52;;;9.95;;
36355;SDS011;22384;54.302;18.596;2022-08-19T06:00:44;17.13;;;9.50;;
36355;SDS011;22384;54.302;18.596;2022-08-19T06:03:10;15.30;;;10.05;;
36355;SDS011;22384;54.302;18.596;2022-08-19T06:05:52;21.58;;;10.13;;
36355;SDS011;22384;54.302;18.596;2022-08-19T06:11:54;30.75;;;10.20;;
36355;SDS011;22384;54.302;18.596;2022-08-19T06:14:29;14.10;;;10.88;;
36355;SDS011;22384;54.302;18.596;2022-08-19T06:17:18;15.60;;;9.20;;
36355;SDS011;22384;54.302;18.596;2022-08-19T06:20:08;16.27;;;9.15;;
36355;SDS011;22384;54.302;18.596;2022-08-19T06:22:55;15.48;;;9.15;;
36355;SDS011;22384;54.302;18.596;2022-08-19T06:28:59;14.48;;;8.70;;
36355;SDS011;22384;54.302;18.596;2022-08-19T06:32:05;11.65;;;8.40;;
36355;SDS011;22384;54.302;18.596;2022-08-19T06:34:32;13.65;;;9.13;;
36355;SDS011;22384;54.302;18.596;2022-08-19T06:37:28;14.55;;;8.70;;
36355;SDS011;22384;54.302;18.596;2022-08-19T06:40:17;14.30;;;8.77;;
36355;SDS011;22384;54.302;18.596;2022-08-19T06:42:49;16.00;;;8.57;;
36355;SDS011;22384;54.302;18.596;2022-08-19T06:48:29;18.77;;;9.15;;
36355;SDS011;22384;54.302;18.596;2022-08-19T06:50:56;16.73;;;9.25;;
36355;SDS011;22384;54.302;18.596;2022-08-19T06:53:54;12.60;;;8.55;;
36355;SDS011;22384;54.302;18.596;2022-08-19T06:59:10;15.90;;;9.00;;
36355;SDS011;22384;54.302;18.596;2022-08-19T07:01:56;10.15;;;8.13;;
36355;SDS011;22384;54.302;18.596;2022-08-19T07:04:53;10.75;;;8.18;;
36355;SDS011;22384;54.302;18.596;2022-08-19T07:07:40;14.85;;;9.73;;
36355;SDS011;22384;54.302;18.596;2022-08-19T07:10:17;12.50;;;8.18;;
36355;SDS011;22384;54.302;18.596;2022-08-19T07:12:56;12.38;;;8.05;;
36355;SDS011;22384;54.302;18.596;2022-08-19T07:15:45;16.90;;;8.20;;
36355;SDS011;22384;54.302;18.596;2022-08-19T07:18:31;11.32;;;8.07;;
36355;SDS011;22384;54.302;18.596;2022-08-19T07:24:09;16.83;;;7.57;;
36355;SDS011;22384;54.302;18.596;2022-08-19T07:26:56;12.90;;;8.20;;
36355;SDS011;22384;54.302;18.596;2022-08-19T07:36:10;15.25;;;7.80;;
36355;SDS011;22384;54.302;18.596;2022-08-19T07:39:03;10.25;;;6.95;;
36355;SDS011;22384;54.302;18.596;2022-08-19T07:44:57;14.60;;;7.43;;
36355;SDS011;22384;54.302;18.596;2022-08-19T07:57:09;11.18;;;7.40;;
36355;SDS011;22384;54.302;18.596;2022-08-19T08:02:33;14.23;;;7.00;;
36355;SDS011;22384;54.302;18.596;2022-08-19T08:05:19;9.48;;;7.30;;
36355;SDS011;22384;54.302;18.596;2022-08-19T08:08:13;11.63;;;6.70;;
36355;SDS011;22384;54.302;18.596;2022-08-19T08:13:44;12.20;;;7.10;;
36355;SDS011;22384;54.302;18.596;2022-08-19T08:16:33;13.70;;;6.68;;
36355;SDS011;22384;54.302;18.596;2022-08-19T08:19:25;11.43;;;6.80;;
36355;SDS011;22384;54.302;18.596;2022-08-19T08:22:01;11.73;;;6.40;;
36355;SDS011;22384;54.302;18.596;2022-08-19T08:27:45;11.57;;;6.18;;
36355;SDS011;22384;54.302;18.596;2022-08-19T08:30:42;8.73;;;6.60;;
36355;SDS011;22384;54.302;18.596;2022-08-19T08:33:38;10.93;;;6.47;;
36355;SDS011;22384;54.302;18.596;2022-08-19T08:36:32;14.90;;;6.78;;
36355;SDS011;22384;54.302;18.596;2022-08-19T08:39:20;10.63;;;5.63;;
36355;SDS011;22384;54.302;18.596;2022-08-19T08:45:05;6.68;;;5.13;;
36355;SDS011;22384;54.302;18.596;2022-08-19T08:47:47;11.38;;;4.90;;
36355;SDS011;22384;54.302;18.596;2022-08-19T08:50:51;9.55;;;5.15;;
36355;SDS011;22384;54.302;18.596;2022-08-19T08:53:45;8.40;;;5.57;;
36355;SDS011;22384;54.302;18.596;2022-08-19T08:56:32;14.32;;;5.68;;
36355;SDS011;22384;54.302;18.596;2022-08-19T09:01:57;7.40;;;4.75;;
36355;SDS011;22384;54.302;18.596;2022-08-19T09:04:34;8.07;;;4.63;;
36355;SDS011;22384;54.302;18.596;2022-08-19T09:21:22;14.88;;;4.80;;
36355;SDS011;22384;54.302;18.596;2022-08-19T09:23:53;13.75;;;4.65;;
36355;SDS011;22384;54.302;18.596;2022-08-19T09:32:44;6.38;;;4.30;;
36355;SDS011;22384;54.302;18.596;2022-08-19T09:35:20;8.52;;;4.90;;
36355;SDS011;22384;54.302;18.596;2022-08-19T09:37:54;6.07;;;4.05;;
36355;SDS011;22384;54.302;18.596;2022-08-19T09:40:27;8.52;;;4.68;;
36355;SDS011;22384;54.302;18.596;2022-08-19T09:43:02;6.53;;;4.10;;
36355;SDS011;22384;54.302;18.596;2022-08-19T09:45:54;9.55;;;4.35;;
36355;SDS011;22384;54.302;18.596;2022-08-19T09:48:31;7.35;;;4.20;;
36355;SDS011;22384;54.302;18.596;2022-08-19T09:51:28;8.43;;;4.60;;
36355;SDS011;22384;54.302;18.596;2022-08-19T09:57:02;9.20;;;4.72;;
36355;SDS011;22384;54.302;18.596;2022-08-19T09:59:45;8.10;;;4.25;;
36355;SDS011;22384;54.302;18.596;2022-08-19T10:02:56;9.23;;;3.92;;
36355;SDS011;22384;54.302;18.596;2022-08-19T10:05:42;12.20;;;5.22;;
36355;SDS011;22384;54.302;18.596;2022-08-19T10:08:34;10.18;;;4.32;;
36355;SDS011;22384;54.302;18.596;2022-08-19T10:11:11;12.60;;;4.35;;
36355;SDS011;22384;54.302;18.596;2022-08-19T10:13:44;12.50;;;4.30;;
36355;SDS011;22384;54.302;18.596;2022-08-19T10:16:16;10.35;;;4.13;;
36355;SDS011;22384;54.302;18.596;2022-08-19T10:18:47;10.15;;;4.18;;
36355;SDS011;22384;54.302;18.596;2022-08-19T10:21:19;13.63;;;4.20;;
36355;SDS011;22384;54.302;18.596;2022-08-19T10:23:47;10.43;;;4.28;;
36355;SDS011;22384;54.302;18.596;2022-08-19T10:26:19;5.43;;;3.90;;
36355;SDS011;22384;54.302;18.596;2022-08-19T10:28:45;12.68;;;4.45;;
36355;SDS011;22384;54.302;18.596;2022-08-19T10:31:13;8.10;;;3.72;;
36355;SDS011;22384;54.302;18.596;2022-08-19T10:33:40;11.93;;;4.57;;
36355;SDS011;22384;54.302;18.596;2022-08-19T10:36:09;11.73;;;4.07;;
36355;SDS011;22384;54.302;18.596;2022-08-19T10:38:40;7.95;;;4.00;;
36355;SDS011;22384;54.302;18.596;2022-08-19T10:41:24;8.65;;;4.05;;
36355;SDS011;22384;54.302;18.596;2022-08-19T10:43:52;7.22;;;4.00;;
36355;SDS011;22384;54.302;18.596;2022-08-19T10:46:22;8.68;;;4.13;;
36355;SDS011;22384;54.302;18.596;2022-08-19T10:49:01;9.07;;;4.28;;
36355;SDS011;22384;54.302;18.596;2022-08-19T10:51:27;12.77;;;3.95;;
36355;SDS011;22384;54.302;18.596;2022-08-19T10:54:13;9.05;;;3.75;;
36355;SDS011;22384;54.302;18.596;2022-08-19T10:56:40;7.82;;;4.22;;
36355;SDS011;22384;54.302;18.596;2022-08-19T10:59:21;10.10;;;4.80;;
36355;SDS011;22384;54.302;18.596;2022-08-19T11:01:49;10.27;;;4.88;;
36355;SDS011;22384;54.302;18.596;2022-08-19T11:04:19;10.48;;;3.70;;
36355;SDS011;22384;54.302;18.596;2022-08-19T11:06:46;11.45;;;4.45;;
36355;SDS011;22384;54.302;18.596;2022-08-19T11:09:16;7.53;;;4.25;;
36355;SDS011;22384;54.302;18.596;2022-08-19T11:15:30;8.43;;;3.90;;
36355;SDS011;22384;54.302;18.596;2022-08-19T11:24:39;6.97;;;3.67;;
36355;SDS011;22384;54.302;18.596;2022-08-19T11:27:56;5.55;;;3.80;;
36355;SDS011;22384;54.302;18.596;2022-08-19T11:41:01;10.95;;;4.63;;
36355;SDS011;22384;54.302;18.596;2022-08-19T12:54:27;11.35;;;4.03;;
36355;SDS011;22384;54.302;18.596;2022-08-19T12:57:17;10.15;;;4.10;;
36355;SDS011;22384;54.302;18.596;2022-08-19T13:03:18;14.43;;;4.45;;
36355;SDS011;22384;54.302;18.596;2022-08-19T13:31:10;17.60;;;4.30;;
36355;SDS011;22384;54.302;18.596;2022-08-19T13:34:15;11.82;;;4.22;;
36355;SDS011;22384;54.302;18.596;2022-08-19T13:40:04;10.35;;;4.25;;
36355;SDS011;22384;54.302;18.596;2022-08-19T13:55:13;7.88;;;3.60;;
36355;SDS011;22384;54.302;18.596;2022-08-19T13:58:11;13.82;;;4.10;;
36355;SDS011;22384;54.302;18.596;2022-08-19T14:00:45;8.23;;;4.20;;
36355;SDS011;22384;54.302;18.596;2022-08-19T14:12:40;16.77;;;4.07;;
36355;SDS011;22384;54.302;18.596;2022-08-19T15:24:24;8.23;;;4.45;;
36355;SDS011;22384;54.302;18.596;2022-08-19T15:26:52;10.70;;;4.55;;
36355;SDS011;22384;54.302;18.596;2022-08-19T15:29:18;8.30;;;4.68;;
36355;SDS011;22384;54.302;18.596;2022-08-19T15:31:51;7.45;;;4.65;;
36355;SDS011;22384;54.302;18.596;2022-08-19T15:34:20;13.02;;;4.82;;
36355;SDS011;22384;54.302;18.596;2022-08-19T15:36:47;9.65;;;4.30;;
36355;SDS011;22384;54.302;18.596;2022-08-19T15:39:16;14.18;;;4.80;;
36355;SDS011;22384;54.302;18.596;2022-08-19T15:42:11;5.17;;;4.00;;
36355;SDS011;22384;54.302;18.596;2022-08-19T15:44:52;10.90;;;3.95;;
36355;SDS011;22384;54.302;18.596;2022-08-19T15:47:41;6.85;;;3.88;;
36355;SDS011;22384;54.302;18.596;2022-08-19T15:50:08;8.50;;;5.22;;
36355;SDS011;22384;54.302;18.596;2022-08-19T15:52:50;7.82;;;4.18;;
36355;SDS011;22384;54.302;18.596;2022-08-19T15:55:20;9.95;;;4.80;;
36355;SDS011;22384;54.302;18.596;2022-08-19T15:57:50;9.35;;;4.15;;
36355;SDS011;22384;54.302;18.596;2022-08-19T16:00:39;11.13;;;5.05;;
36355;SDS011;22384;54.302;18.596;2022-08-19T16:03:25;11.05;;;4.18;;
36355;SDS011;22384;54.302;18.596;2022-08-19T16:06:11;21.58;;;4.45;;
36355;SDS011;22384;54.302;18.596;2022-08-19T16:08:57;16.25;;;4.63;;
36355;SDS011;22384;54.302;18.596;2022-08-19T16:11:27;13.57;;;4.72;;
36355;SDS011;22384;54.302;18.596;2022-08-19T16:13:54;13.27;;;5.13;;
36355;SDS011;22384;54.302;18.596;2022-08-19T16:19:23;8.13;;;4.32;;
36355;SDS011;22384;54.302;18.596;2022-08-19T16:24:48;14.18;;;5.32;;
36355;SDS011;22384;54.302;18.596;2022-08-19T16:27:37;9.05;;;4.22;;
36355;SDS011;22384;54.302;18.596;2022-08-19T16:30:06;11.13;;;4.82;;
36355;SDS011;22384;54.302;18.596;2022-08-19T16:32:44;13.35;;;5.22;;
36355;SDS011;22384;54.302;18.596;2022-08-19T16:35:13;12.05;;;4.72;;
36355;SDS011;22384;54.302;18.596;2022-08-19T16:37:39;13.55;;;5.68;;
36355;SDS011;22384;54.302;18.596;2022-08-19T16:40:08;11.25;;;4.63;;
36355;SDS011;22384;54.302;18.596;2022-08-19T16:42:39;13.93;;;6.00;;
36355;SDS011;22384;54.302;18.596;2022-08-19T16:45:11;11.23;;;5.75;;
36355;SDS011;22384;54.302;18.596;2022-08-19T16:50:17;17.48;;;5.50;;
36355;SDS011;22384;54.302;18.596;2022-08-19T16:52:56;13.13;;;5.10;;
36355;SDS011;22384;54.302;18.596;2022-08-19T16:55:23;8.25;;;4.97;;
36355;SDS011;22384;54.302;18.596;2022-08-19T16:57:52;14.77;;;6.00;;
36355;SDS011;22384;54.302;18.596;2022-08-19T17:00:21;13.10;;;5.53;;
36355;SDS011;22384;54.302;18.596;2022-08-19T17:02:48;15.00;;;5.68;;
36355;SDS011;22384;54.302;18.596;2022-08-19T17:05:14;10.32;;;5.20;;
36355;SDS011;22384;54.302;18.596;2022-08-19T17:07:43;10.93;;;5.72;;
36355;SDS011;22384;54.302;18.596;2022-08-19T17:10:09;13.15;;;5.45;;
36355;SDS011;22384;54.302;18.596;2022-08-19T17:12:38;13.23;;;5.90;;
36355;SDS011;22384;54.302;18.596;2022-08-19T17:15:05;12.43;;;5.57;;
36355;SDS011;22384;54.302;18.596;2022-08-19T17:17:32;18.70;;;5.60;;
36355;SDS011;22384;54.302;18.596;2022-08-19T17:20:01;16.52;;;6.20;;
36355;SDS011;22384;54.302;18.596;2022-08-19T17:22:30;19.77;;;6.03;;
36355;SDS011;22384;54.302;18.596;2022-08-19T17:24:59;9.80;;;5.30;;
36355;SDS011;22384;54.302;18.596;2022-08-19T17:27:47;10.63;;;5.05;;
36355;SDS011;22384;54.302;18.596;2022-08-19T17:30:13;14.43;;;5.28;;
36355;SDS011;22384;54.302;18.596;2022-08-19T17:32:39;14.27;;;6.05;;
36355;SDS011;22384;54.302;18.596;2022-08-19T17:35:09;14.00;;;6.10;;
36355;SDS011;22384;54.302;18.596;2022-08-19T17:37:45;12.60;;;5.47;;
36355;SDS011;22384;54.302;18.596;2022-08-19T17:40:15;12.65;;;5.13;;
36355;SDS011;22384;54.302;18.596;2022-08-19T17:42:44;13.85;;;5.20;;
36355;SDS011;22384;54.302;18.596;2022-08-19T17:45:11;11.18;;;5.90;;
36355;SDS011;22384;54.302;18.596;2022-08-19T17:47:58;13.82;;;5.90;;
36355;SDS011;22384;54.302;18.596;2022-08-19T17:50:25;14.60;;;6.03;;
36355;SDS011;22384;54.302;18.596;2022-08-19T17:53:00;13.93;;;6.00;;
36355;SDS011;22384;54.302;18.596;2022-08-19T17:55:28;11.68;;;5.93;;
36355;SDS011;22384;54.302;18.596;2022-08-19T17:57:54;11.68;;;5.28;;
36355;SDS011;22384;54.302;18.596;2022-08-19T18:00:21;14.10;;;5.75;;
36355;SDS011;22384;54.302;18.596;2022-08-19T18:02:54;13.38;;;5.28;;
36355;SDS011;22384;54.302;18.596;2022-08-19T18:05:22;7.07;;;4.93;;
36355;SDS011;22384;54.302;18.596;2022-08-19T18:07:50;8.23;;;5.75;;
36355;SDS011;22384;54.302;18.596;2022-08-19T18:10:17;12.23;;;5.45;;
36355;SDS011;22384;54.302;18.596;2022-08-19T18:12:47;13.57;;;5.82;;
36355;SDS011;22384;54.302;18.596;2022-08-19T18:15:13;8.57;;;5.38;;
36355;SDS011;22384;54.302;18.596;2022-08-19T18:17:39;8.98;;;5.28;;
36355;SDS011;22384;54.302;18.596;2022-08-19T18:20:09;11.23;;;5.30;;
36355;SDS011;22384;54.302;18.596;2022-08-19T18:22:39;10.60;;;5.60;;
36355;SDS011;22384;54.302;18.596;2022-08-19T18:25:07;10.27;;;5.55;;
36355;SDS011;22384;54.302;18.596;2022-08-19T18:27:36;19.10;;;5.85;;
36355;SDS011;22384;54.302;18.596;2022-08-19T18:30:15;10.52;;;5.40;;
36355;SDS011;22384;54.302;18.596;2022-08-19T18:32:48;12.10;;;5.65;;
36355;SDS011;22384;54.302;18.596;2022-08-19T18:38:34;14.23;;;5.32;;
36355;SDS011;22384;54.302;18.596;2022-08-19T18:47:40;12.07;;;5.53;;
36355;SDS011;22384;54.302;18.596;2022-08-19T18:50:34;10.65;;;5.82;;
36355;SDS011;22384;54.302;18.596;2022-08-19T18:53:12;19.70;;;5.80;;
36355;SDS011;22384;54.302;18.596;2022-08-19T18:55:48;11.90;;;5.68;;
36355;SDS011;22384;54.302;18.596;2022-08-19T19:01:31;10.73;;;6.20;;
36355;SDS011;22384;54.302;18.596;2022-08-19T19:03:59;10.38;;;6.22;;
36355;SDS011;22384;54.302;18.596;2022-08-19T19:06:30;13.95;;;5.82;;
36355;SDS011;22384;54.302;18.596;2022-08-19T19:08:59;14.00;;;6.05;;
36355;SDS011;22384;54.302;18.596;2022-08-19T19:11:27;11.75;;;6.20;;
36355;SDS011;22384;54.302;18.596;2022-08-19T19:13:53;14.88;;;5.55;;
36355;SDS011;22384;54.302;18.596;2022-08-19T19:16:20;7.30;;;5.90;;
36355;SDS011;22384;54.302;18.596;2022-08-19T19:18:49;11.30;;;6.05;;
36355;SDS011;22384;54.302;18.596;2022-08-19T19:21:17;11.13;;;6.30;;
36355;SDS011;22384;54.302;18.596;2022-08-19T19:23:44;13.43;;;5.68;;
36355;SDS011;22384;54.302;18.596;2022-08-19T19:26:11;15.77;;;6.22;;
36355;SDS011;22384;54.302;18.596;2022-08-19T19:28:58;11.88;;;5.85;;
36355;SDS011;22384;54.302;18.596;2022-08-19T19:31:25;12.40;;;6.50;;
36355;SDS011;22384;54.302;18.596;2022-08-19T19:33:52;14.25;;;5.93;;
36355;SDS011;22384;54.302;18.596;2022-08-19T19:36:22;15.43;;;5.85;;
36355;SDS011;22384;54.302;18.596;2022-08-19T19:38:49;12.95;;;6.68;;
36355;SDS011;22384;54.302;18.596;2022-08-19T19:41:35;14.73;;;6.25;;
36355;SDS011;22384;54.302;18.596;2022-08-19T19:44:02;14.52;;;6.57;;
36355;SDS011;22384;54.302;18.596;2022-08-19T19:46:49;18.50;;;6.60;;
36355;SDS011;22384;54.302;18.596;2022-08-19T19:49:35;9.20;;;6.63;;
36355;SDS011;22384;54.302;18.596;2022-08-19T19:52:01;14.48;;;6.28;;
36355;SDS011;22384;54.302;18.596;2022-08-19T19:54:28;12.55;;;6.32;;
36355;SDS011;22384;54.302;18.596;2022-08-19T19:56:56;12.30;;;5.95;;
36355;SDS011;22384;54.302;18.596;2022-08-19T19:59:34;9.88;;;6.25;;
36355;SDS011;22384;54.302;18.596;2022-08-19T20:02:00;9.38;;;6.18;;
36355;SDS011;22384;54.302;18.596;2022-08-19T20:04:26;12.57;;;6.78;;
36355;SDS011;22384;54.302;18.596;2022-08-19T20:06:53;14.35;;;6.85;;
36355;SDS011;22384;54.302;18.596;2022-08-19T20:09:19;15.82;;;7.00;;
36355;SDS011;22384;54.302;18.596;2022-08-19T20:11:55;10.60;;;5.93;;
36355;SDS011;22384;54.302;18.596;2022-08-19T20:16:49;14.88;;;6.05;;
36355;SDS011;22384;54.302;18.596;2022-08-19T20:19:17;18.08;;;6.82;;
36355;SDS011;22384;54.302;18.596;2022-08-19T20:21:44;17.63;;;6.53;;
36355;SDS011;22384;54.302;18.596;2022-08-19T20:24:12;13.40;;;6.10;;
36355;SDS011;22384;54.302;18.596;2022-08-19T20:27:02;13.95;;;6.88;;
36355;SDS011;22384;54.302;18.596;2022-08-19T20:32:41;10.85;;;6.95;;
36355;SDS011;22384;54.302;18.596;2022-08-19T20:35:15;13.15;;;6.78;;
36355;SDS011;22384;54.302;18.596;2022-08-19T20:37:47;11.35;;;6.43;;
36355;SDS011;22384;54.302;18.596;2022-08-19T20:40:19;12.88;;;6.50;;
36355;SDS011;22384;54.302;18.596;2022-08-19T21:46:27;14.18;;;6.10;;
36355;SDS011;22384;54.302;18.596;2022-08-19T21:48:53;7.80;;;5.63;;
36355;SDS011;22384;54.302;18.596;2022-08-19T21:51:21;11.23;;;5.95;;
36355;SDS011;22384;54.302;18.596;2022-08-19T21:54:07;10.23;;;5.90;;
36355;SDS011;22384;54.302;18.596;2022-08-19T21:56:33;13.35;;;5.53;;
36355;SDS011;22384;54.302;18.596;2022-08-19T21:59:00;8.75;;;5.65;;
36355;SDS011;22384;54.302;18.596;2022-08-19T22:01:26;10.15;;;6.22;;
36355;SDS011;22384;54.302;18.596;2022-08-19T22:03:53;14.93;;;6.40;;
36355;SDS011;22384;54.302;18.596;2022-08-19T22:06:20;8.43;;;5.68;;
36355;SDS011;22384;54.302;18.596;2022-08-19T22:08:47;14.43;;;6.88;;
36355;SDS011;22384;54.302;18.596;2022-08-19T22:11:14;12.50;;;6.20;;
36355;SDS011;22384;54.302;18.596;2022-08-19T22:13:41;13.60;;;6.47;;
36355;SDS011;22384;54.302;18.596;2022-08-19T22:16:11;7.95;;;5.43;;
36355;SDS011;22384;54.302;18.596;2022-08-19T22:18:39;11.20;;;5.60;;
36355;SDS011;22384;54.302;18.596;2022-08-19T22:21:10;10.30;;;5.70;;
36355;SDS011;22384;54.302;18.596;2022-08-19T22:23:40;11.55;;;6.18;;
36355;SDS011;22384;54.302;18.596;2022-08-19T22:26:18;12.82;;;6.07;;
36355;SDS011;22384;54.302;18.596;2022-08-19T22:28:47;9.48;;;5.60;;
36355;SDS011;22384;54.302;18.596;2022-08-19T22:31:14;10.68;;;5.40;;
36355;SDS011;22384;54.302;18.596;2022-08-19T22:33:40;10.95;;;5.38;;
36355;SDS011;22384;54.302;18.596;2022-08-19T22:36:11;8.85;;;5.50;;
36355;SDS011;22384;54.302;18.596;2022-08-19T22:38:38;13.13;;;6.03;;
36355;SDS011;22384;54.302;18.596;2022-08-19T22:41:05;8.05;;;5.50;;
36355;SDS011;22384;54.302;18.596;2022-08-19T22:43:32;10.05;;;5.97;;
36355;SDS011;22384;54.302;18.596;2022-08-19T22:45:58;14.90;;;5.63;;
36355;SDS011;22384;54.302;18.596;2022-08-19T22:48:25;14.10;;;5.32;;
36355;SDS011;22384;54.302;18.596;2022-08-19T22:50:52;10.93;;;5.40;;
36355;SDS011;22384;54.302;18.596;2022-08-19T22:53:39;13.10;;;6.07;;
36355;SDS011;22384;54.302;18.596;2022-08-19T22:56:06;9.27;;;5.25;;
36355;SDS011;22384;54.302;18.596;2022-08-19T22:58:33;10.52;;;5.65;;
36355;SDS011;22384;54.302;18.596;2022-08-19T23:01:03;11.15;;;5.47;;
36355;SDS011;22384;54.302;18.596;2022-08-19T23:03:29;9.43;;;5.13;;
36355;SDS011;22384;54.302;18.596;2022-08-19T23:05:58;12.40;;;5.47;;
36355;SDS011;22384;54.302;18.596;2022-08-19T23:08:24;8.13;;;5.30;;
36355;SDS011;22384;54.302;18.596;2022-08-19T23:10:50;7.38;;;5.10;;
36355;SDS011;22384;54.302;18.596;2022-08-19T23:13:16;9.70;;;4.70;;
36355;SDS011;22384;54.302;18.596;2022-08-19T23:15:43;14.07;;;5.47;;
36355;SDS011;22384;54.302;18.596;2022-08-19T23:18:11;9.07;;;5.00;;
36355;SDS011;22384;54.302;18.596;2022-08-19T23:20:39;15.52;;;5.18;;
36355;SDS011;22384;54.302;18.596;2022-08-19T23:23:09;11.25;;;5.70;;
36355;SDS011;22384;54.302;18.596;2022-08-19T23:25:36;11.77;;;4.80;;
36355;SDS011;22384;54.302;18.596;2022-08-19T23:28:03;11.52;;;4.97;;
36355;SDS011;22384;54.302;18.596;2022-08-19T23:30:49;13.68;;;4.80;;
36355;SDS011;22384;54.302;18.596;2022-08-19T23:33:18;10.57;;;5.78;;
36355;SDS011;22384;54.302;18.596;2022-08-19T23:35:58;13.80;;;5.05;;
36355;SDS011;22384;54.302;18.596;2022-08-19T23:38:26;13.45;;;5.13;;
36355;SDS011;22384;54.302;18.596;2022-08-19T23:40:53;11.63;;;5.05;;
36355;SDS011;22384;54.302;18.596;2022-08-19T23:43:23;5.60;;;4.50;;
36355;SDS011;22384;54.302;18.596;2022-08-19T23:45:49;8.90;;;5.03;;
36355;SDS011;22384;54.302;18.596;2022-08-19T23:48:15;7.78;;;5.63;;
36355;SDS011;22384;54.302;18.596;2022-08-19T23:50:42;6.88;;;4.93;;
36355;SDS011;22384;54.302;18.596;2022-08-19T23:53:10;7.25;;;4.75;;
36355;SDS011;22384;54.302;18.596;2022-08-19T23:55:38;13.13;;;4.65;;
36355;SDS011;22384;54.302;18.596;2022-08-19T23:58:05;10.60;;;5.30;;
